aviador You're here:

YFRT Decoded Metar

FORREST in _UNIDENTIFIED
Report Time2017-10-22 17:00:00
UTC Time2017-10-22 17:22:10
Flight Rules unknown UNKNOWN
Wind080° at 05 kt
W.Decomp.*RWY 09: 4.9 kt HW 1.1 kt LCW
RWY 36: 1.1 kt HW 4.9 kt RCW
W.Rank080° ranks 10
Current wind is below 080° avg. (9.2)
VisibilityN/A
Phenomena:N/A
Clouds:N/A
Expected CloudBase > 5,200 ft AGL from Temp-Dew spread
CeilingNone
Temp19°C (ISA +5)
Dew Point06°C (43% RH)
AAT16.3°C
QNH1014 hPa
Density Alt1,194 ft
Elevation512 ft
Report Wrong Elevation
Raw Report
METAR YFRT 221700Z AUTO 08005KT //// // ////// 19/06 Q1014=

Extra information for YFRT:More info

Metar Taf Metar & Taf Last 4 Metars F.Rules Stats Wind Profile Meteogram Temp Stats Airport Information Weather charts Add Link Nearby VenuesMetar ALERT Operation Metar Decoded Social comments